createdAt,value
2019-05-17T00:01:52.050Z,94671.52
2019-05-17T00:04:22.071Z,94673.96
2019-05-17T00:06:52.438Z,94670.02
2019-05-17T00:09:22.457Z,94667.55
2019-05-17T00:11:52.447Z,94665.70
2019-05-17T00:14:22.498Z,94663.50
2019-05-17T00:16:52.827Z,94663.50
2019-05-17T00:19:23.036Z,94652.89
2019-05-17T00:21:52.990Z,94649.14
2019-05-17T00:24:22.975Z,94649.14
2019-05-17T00:26:53.086Z,94645.09
2019-05-17T00:29:23.422Z,94643.47
2019-05-17T00:31:53.441Z,94637.16
2019-05-17T00:34:23.427Z,94637.16
2019-05-17T00:36:53.514Z,94631.56
2019-05-17T00:39:23.860Z,94631.56
2019-05-17T00:41:53.878Z,94633.53
2019-05-17T00:44:23.898Z,94625.73
2019-05-17T00:46:54.222Z,94625.73
2019-05-17T00:49:26.328Z,94622.38
2019-05-17T00:51:56.768Z,94616.22
2019-05-17T00:54:27.057Z,94616.22
2019-05-17T00:56:57.070Z,94611.59
2019-05-17T00:59:27.059Z,94614.81
2019-05-17T01:01:57.082Z,94611.71
2019-05-17T01:04:27.621Z,94611.71
2019-05-17T01:06:57.938Z,94604.19
2019-05-17T01:09:28.334Z,94603.17
2019-05-17T01:11:58.439Z,94597.78
2019-05-17T01:14:28.536Z,94595.98
2019-05-17T01:16:58.536Z,94594.50
2019-05-17T01:19:28.800Z,94594.50
2019-05-17T01:21:59.351Z,94595.16
2019-05-17T01:24:29.367Z,94587.26
2019-05-17T01:26:59.209Z,94587.61
2019-05-17T01:29:29.462Z,94578.52
2019-05-17T01:31:59.772Z,94579.46
2019-05-17T01:34:29.870Z,94579.46
2019-05-17T01:37:00.083Z,94586.16
2019-05-17T01:39:33.392Z,94577.34
2019-05-17T01:42:02.606Z,94584.86
2019-05-17T01:44:32.855Z,94579.81
2019-05-17T01:47:03.144Z,94572.62
2019-05-17T01:49:33.530Z,94581.59
2019-05-17T01:52:03.864Z,94581.59
2019-05-17T01:54:36.145Z,94575.37
2019-05-17T01:57:07.303Z,94572.77
2019-05-17T01:59:37.669Z,94581.71
2019-05-17T02:02:13.571Z,94575.45
2019-05-17T02:04:43.858Z,94570.06
2019-05-17T02:07:14.180Z,94571.64
2019-05-17T02:09:44.162Z,94563.93
2019-05-17T02:12:14.491Z,94563.93
2019-05-17T02:14:46.775Z,94568.81
2019-05-17T02:17:17.398Z,94568.81
2019-05-17T02:19:47.789Z,94560.12
2019-05-17T02:22:18.116Z,94560.12
2019-05-17T02:24:48.326Z,94555.98
2019-05-17T02:27:21.419Z,94556.27
2019-05-17T02:29:51.978Z,94551.34
2019-05-17T02:32:23.636Z,94554.14
2019-05-17T02:34:53.676Z,94554.14
2019-05-17T02:37:24.022Z,94554.30
2019-05-17T02:40:03.197Z,94554.30
2019-05-17T02:42:25.982Z,94545.99
2019-05-17T02:44:56.001Z,94548.52
2019-05-17T02:47:26.286Z,94538.91
2019-05-17T02:49:56.539Z,94545.52
2019-05-17T02:52:26.827Z,94545.52
2019-05-17T02:54:57.156Z,94547.29
2019-05-17T02:57:27.452Z,94545.31
2019-05-17T02:59:57.775Z,94541.77
2019-05-17T03:02:28.323Z,94541.77
2019-05-17T03:04:58.868Z,94541.77
2019-05-17T03:07:32.622Z,94545.15
2019-05-17T03:10:13.589Z,94542.20
2019-05-17T03:12:34.221Z,94542.20
2019-05-17T03:15:05.048Z,94539.41
2019-05-17T03:17:35.338Z,94537.16
2019-05-17T03:20:12.502Z,94539.05
2019-05-17T03:22:44.106Z,94535.47
2019-05-17T03:25:14.435Z,94524.45
2019-05-17T03:27:44.946Z,94524.45
2019-05-17T03:30:18.286Z,94527.75
2019-05-17T03:32:49.071Z,94532.44
2019-05-17T03:35:19.455Z,94526.45
2019-05-17T03:37:52.884Z,94526.45
2019-05-17T03:40:36.349Z,94519.89
2019-05-17T03:42:54.031Z,94519.89
2019-05-17T03:45:24.484Z,94524.66
2019-05-17T03:47:54.572Z,94516.27
2019-05-17T03:50:24.903Z,94515.30
2019-05-17T03:52:55.186Z,94522.53
2019-05-17T03:55:25.516Z,94522.53
2019-05-17T03:57:55.809Z,94526.35
2019-05-17T04:00:26.133Z,94526.35
2019-05-17T04:02:56.416Z,94523.02
2019-05-17T04:05:26.736Z,94515.63
2019-05-17T04:07:57.035Z,94515.66
2019-05-17T04:10:27.350Z,94512.64
2019-05-17T04:12:57.638Z,94513.66
2019-05-17T04:15:27.593Z,94512.75
2019-05-17T04:17:57.994Z,94512.75
2019-05-17T04:20:28.316Z,94519.52
2019-05-17T04:23:03.750Z,94519.52
2019-05-17T04:25:33.411Z,94518.53
2019-05-17T04:28:04.393Z,94511.77
2019-05-17T04:30:34.422Z,94511.77
2019-05-17T04:33:04.827Z,94515.73
2019-05-17T04:35:35.189Z,94518.91
2019-05-17T04:38:05.510Z,94519.73
2019-05-17T04:40:35.530Z,94518.19
2019-05-17T04:43:05.815Z,94519.53
2019-05-17T04:45:35.838Z,94512.43
2019-05-17T04:48:05.893Z,94517.38
2019-05-17T04:50:36.268Z,94514.84
2019-05-17T04:53:06.556Z,94512.91
2019-05-17T04:55:36.578Z,94520.46
2019-05-17T04:58:06.572Z,94520.46
2019-05-17T05:00:36.579Z,94503.66
2019-05-17T05:03:07.842Z,94505.34
2019-05-17T05:05:37.863Z,94505.34
2019-05-17T05:08:07.951Z,94509.36
2019-05-17T05:10:38.772Z,94510.12
2019-05-17T05:13:09.252Z,94503.48
2019-05-17T05:15:44.160Z,94501.45
2019-05-17T05:18:14.066Z,94501.45
2019-05-17T05:20:44.402Z,94507.58
2019-05-17T05:23:14.434Z,94508.19
2019-05-17T05:25:44.371Z,94514.42
2019-05-17T05:28:14.383Z,94504.03
2019-05-17T05:30:45.085Z,94504.03
2019-05-17T05:33:15.029Z,94499.96
2019-05-17T05:35:45.018Z,94500.64
2019-05-17T05:38:15.043Z,94500.64
2019-05-17T05:40:44.953Z,94500.00
2019-05-17T05:43:15.584Z,94503.97
2019-05-17T05:45:46.935Z,94503.97
2019-05-17T05:48:16.958Z,94506.50
2019-05-17T05:50:46.943Z,94502.63
2019-05-17T05:53:16.971Z,94500.39
2019-05-17T05:55:47.089Z,94499.61
2019-05-17T05:58:17.146Z,94497.36
2019-05-17T06:00:47.150Z,94496.73
2019-05-17T06:03:17.140Z,94484.06
2019-05-17T06:05:47.196Z,94484.06
2019-05-17T06:08:17.244Z,94489.31
2019-05-17T06:10:47.234Z,94488.97
2019-05-17T06:13:17.261Z,94486.88
2019-05-17T06:15:47.255Z,94487.73
2019-05-17T06:18:17.287Z,94489.52
2019-05-17T06:20:47.275Z,94496.96
2019-05-17T06:23:19.598Z,94497.65
2019-05-17T06:25:52.034Z,94495.08
2019-05-17T06:28:22.295Z,94492.70
2019-05-17T06:30:52.675Z,94492.73
2019-05-17T06:33:30.544Z,94494.85
2019-05-17T06:35:54.419Z,94492.30
2019-05-17T06:38:24.411Z,94489.39
2019-05-17T06:40:54.541Z,94495.59
2019-05-17T06:43:24.531Z,94490.88
2019-05-17T06:45:54.492Z,94488.44
2019-05-17T06:48:32.491Z,94488.45
2019-05-17T06:51:03.932Z,94492.01
2019-05-17T06:53:34.887Z,94482.67
2019-05-17T06:56:04.917Z,94476.45
2019-05-17T06:58:34.831Z,94482.28
2019-05-17T07:01:04.856Z,94466.56
2019-05-17T07:03:34.847Z,94479.42
2019-05-17T07:06:06.614Z,94479.69
2019-05-17T07:08:40.097Z,94480.10
2019-05-17T07:11:09.878Z,94478.85
2019-05-17T07:13:40.027Z,94477.77
2019-05-17T07:16:10.338Z,94478.80
2019-05-17T07:18:40.530Z,94473.96
2019-05-17T07:21:10.554Z,94474.86
2019-05-17T07:23:41.253Z,94472.59
2019-05-17T07:26:12.039Z,94473.34
2019-05-17T07:28:42.310Z,94458.28
2019-05-17T07:31:12.372Z,94453.63
2019-05-17T07:33:42.424Z,94449.67
2019-05-17T07:36:12.298Z,94454.38
2019-05-17T07:38:42.321Z,94450.27
2019-05-17T07:41:12.350Z,94442.84
2019-05-17T07:43:42.356Z,94443.29
2019-05-17T07:46:12.312Z,94442.57
2019-05-17T07:48:42.300Z,94439.08
2019-05-17T07:51:12.327Z,94440.95
2019-05-17T07:53:42.246Z,94431.75
2019-05-17T07:56:12.344Z,94433.95
2019-05-17T07:58:42.410Z,94429.56
2019-05-17T08:01:12.427Z,94431.60
2019-05-17T08:03:43.383Z,94425.83
2019-05-17T08:06:13.413Z,94427.27
2019-05-17T08:08:43.499Z,94423.20
2019-05-17T08:11:21.194Z,94428.26
2019-05-17T08:13:53.078Z,94416.38
2019-05-17T08:16:22.990Z,94419.58
2019-05-17T08:18:53.094Z,94416.95
2019-05-17T08:21:23.082Z,94414.63
2019-05-17T08:23:53.104Z,94417.89
2019-05-17T08:26:24.354Z,94412.67
2019-05-17T08:28:54.299Z,94412.90
2019-05-17T08:31:24.279Z,94417.21
2019-05-17T08:34:03.897Z,94411.89
2019-05-17T08:36:33.889Z,94408.66
2019-05-17T08:39:06.110Z,94413.16
2019-05-17T08:41:36.218Z,94407.92
2019-05-17T08:44:06.270Z,94405.47
2019-05-17T08:46:36.431Z,94401.91
2019-05-17T08:49:06.432Z,94404.86
2019-05-17T08:51:36.449Z,94397.84
2019-05-17T08:54:06.498Z,94395.42
2019-05-17T08:56:36.516Z,94394.52
2019-05-17T08:59:06.550Z,94395.34
2019-05-17T09:01:38.455Z,94394.15
2019-05-17T09:04:09.275Z,94391.53
2019-05-17T09:06:39.814Z,94386.86
2019-05-17T09:09:10.265Z,94382.52
2019-05-17T09:11:40.275Z,94380.45
2019-05-17T09:14:10.629Z,94372.14
2019-05-17T09:16:41.557Z,94378.81
2019-05-17T09:19:11.716Z,94373.14
2019-05-17T09:21:42.028Z,94369.97
2019-05-17T09:24:12.450Z,94371.47
2019-05-17T09:26:42.502Z,94366.19
2019-05-17T09:29:13.392Z,94370.52
2019-05-17T09:31:43.405Z,94362.68
2019-05-17T09:34:13.450Z,94355.97
2019-05-17T09:36:44.303Z,94358.97
2019-05-17T09:39:14.378Z,94359.27
2019-05-17T09:41:44.457Z,94350.50
2019-05-17T09:44:16.316Z,94348.59
2019-05-17T09:46:46.851Z,94343.95
2019-05-17T09:49:19.176Z,94346.51
2019-05-17T09:51:49.671Z,94342.41
2019-05-17T09:54:19.862Z,94344.87
2019-05-17T09:56:49.844Z,94340.06
2019-05-17T09:59:20.362Z,94342.62
2019-05-17T10:01:51.648Z,94343.11
2019-05-17T10:04:21.953Z,94335.00
2019-05-17T10:06:52.554Z,94331.16
2019-05-17T10:09:24.896Z,94332.77
2019-05-17T10:11:55.015Z,94323.47
2019-05-17T10:14:29.176Z,94318.30
2019-05-17T10:17:00.348Z,94318.76
2019-05-17T10:19:31.259Z,94317.53
2019-05-17T10:22:12.741Z,94314.58
2019-05-17T10:24:43.702Z,94305.53
2019-05-17T10:27:14.821Z,94313.94
2019-05-17T10:29:45.723Z,94309.19
2019-05-17T10:32:20.309Z,94304.27
2019-05-17T10:34:51.383Z,94306.10
2019-05-17T10:37:23.668Z,94301.50
2019-05-17T10:39:55.936Z,94309.27
2019-05-17T10:42:26.108Z,94302.72
2019-05-17T10:44:56.086Z,94302.30
2019-05-17T10:47:26.094Z,94309.19
2019-05-17T10:49:56.083Z,94303.72
2019-05-17T10:52:26.095Z,94303.18
2019-05-17T10:54:56.072Z,94295.04
2019-05-17T10:57:26.099Z,94294.11
2019-05-17T10:59:56.069Z,94293.89
2019-05-17T11:02:26.154Z,94284.23
2019-05-17T11:04:56.099Z,94285.73
2019-05-17T11:07:26.340Z,94283.10
2019-05-17T11:09:56.419Z,94283.95
2019-05-17T11:12:26.317Z,94284.50
2019-05-17T11:15:10.350Z,94285.55
2019-05-17T11:17:28.506Z,94291.33
2019-05-17T11:19:58.540Z,94281.67
2019-05-17T11:22:28.775Z,94276.66
2019-05-17T11:24:59.034Z,94270.88
2019-05-17T11:27:29.143Z,94275.26
2019-05-17T11:29:59.155Z,94274.66
2019-05-17T11:32:28.984Z,94278.64
2019-05-17T11:34:58.948Z,94278.85
2019-05-17T11:37:28.908Z,94281.85
2019-05-17T11:39:58.922Z,94269.42
2019-05-17T11:42:29.000Z,94270.97
2019-05-17T11:44:58.977Z,94269.99
2019-05-17T11:47:29.080Z,94270.02
2019-05-17T11:49:59.190Z,94261.64
2019-05-17T11:52:29.198Z,94261.70
2019-05-17T11:54:59.196Z,94261.77
2019-05-17T11:57:29.205Z,94255.30
2019-05-17T11:59:59.656Z,94262.66
2019-05-17T12:02:34.472Z,94258.91
2019-05-17T12:05:05.974Z,94255.99
2019-05-17T12:07:36.013Z,94248.88
2019-05-17T12:10:08.029Z,94249.72
2019-05-17T12:12:38.038Z,94243.57
2019-05-17T12:15:08.018Z,94242.30
2019-05-17T12:17:39.463Z,94245.30
2019-05-17T12:20:12.996Z,94246.77
2019-05-17T12:22:43.499Z,94243.41
2019-05-17T12:25:14.565Z,94245.59
2019-05-17T12:27:44.569Z,94239.52
2019-05-17T12:30:15.041Z,94234.51
2019-05-17T12:32:45.074Z,94237.83
2019-05-17T12:35:15.047Z,94234.97
2019-05-17T12:37:44.992Z,94242.47
2019-05-17T12:40:15.123Z,94237.66
2019-05-17T12:42:45.229Z,94226.77
2019-05-17T12:45:15.241Z,94220.05
2019-05-17T12:47:45.150Z,94218.10
2019-05-17T12:50:15.654Z,94224.59
2019-05-17T12:52:45.627Z,94219.35
2019-05-17T12:55:15.822Z,94221.97
2019-05-17T12:57:46.587Z,94226.82
2019-05-17T13:00:17.751Z,94227.99
2019-05-17T13:02:47.767Z,94225.52
2019-05-17T13:05:17.736Z,94220.67
2019-05-17T13:07:47.826Z,94218.05
2019-05-17T13:10:18.607Z,94215.92
2019-05-17T13:12:48.689Z,94209.97
2019-05-17T13:15:19.139Z,94209.81
2019-05-17T13:17:49.145Z,94206.48
2019-05-17T13:20:21.569Z,94204.11
2019-05-17T13:22:51.592Z,94210.20
2019-05-17T13:25:21.663Z,94208.48
2019-05-17T13:27:51.750Z,94206.82
2019-05-17T13:30:21.832Z,94208.34
2019-05-17T13:32:54.777Z,94203.39
2019-05-17T13:35:24.860Z,94202.36
2019-05-17T13:37:54.936Z,94198.91
2019-05-17T13:40:25.042Z,94203.98
2019-05-17T13:42:55.138Z,94198.18
2019-05-17T13:45:25.194Z,94195.08
2019-05-17T13:47:55.275Z,94202.53
2019-05-17T13:50:27.240Z,94200.37
2019-05-17T13:52:57.442Z,94199.70
2019-05-17T13:55:30.266Z,94200.80
2019-05-17T13:58:00.726Z,94192.48
2019-05-17T14:00:31.349Z,94195.47
2019-05-17T14:03:01.662Z,94193.67
2019-05-17T14:05:33.986Z,94195.63
2019-05-17T14:08:04.931Z,94184.61
2019-05-17T14:10:34.985Z,94179.35
2019-05-17T14:13:05.270Z,94182.97
2019-05-17T14:15:35.322Z,94187.66
2019-05-17T14:18:05.486Z,94187.60
2019-05-17T14:20:35.949Z,94181.91
2019-05-17T14:23:05.921Z,94190.42
2019-05-17T14:25:35.972Z,94184.27
2019-05-17T14:31:04.208Z,94189.08
2019-05-17T14:33:35.669Z,94186.88
2019-05-17T14:36:06.275Z,94186.41
2019-05-17T14:38:36.645Z,94183.45
2019-05-17T14:41:09.219Z,94186.78
2019-05-17T14:43:39.634Z,94193.33
2019-05-17T14:46:09.927Z,94194.27
2019-05-17T14:48:41.112Z,94189.38
2019-05-17T14:51:13.125Z,94194.27
2019-05-17T14:53:43.921Z,94185.43
2019-05-17T14:56:16.762Z,94188.69
2019-05-17T14:58:47.106Z,94186.69
2019-05-17T15:01:18.948Z,94193.31
2019-05-17T15:03:48.982Z,94187.25
2019-05-17T15:06:20.630Z,94188.07
2019-05-17T15:08:51.690Z,94189.45
2019-05-17T15:11:21.770Z,94191.06
2019-05-17T15:13:51.805Z,94183.25
2019-05-17T15:16:21.893Z,94184.30
2019-05-17T15:18:52.341Z,94193.50
2019-05-17T15:21:23.252Z,94189.72
2019-05-17T15:23:53.709Z,94187.61
2019-05-17T15:26:23.899Z,94188.27
2019-05-17T15:28:54.217Z,94188.36
2019-05-17T15:31:25.764Z,94188.65
2019-05-17T15:33:56.622Z,94187.80
2019-05-17T15:36:26.721Z,94191.58
2019-05-17T15:38:57.521Z,94187.33
2019-05-17T15:41:27.647Z,94187.09
2019-05-17T15:43:58.211Z,94188.71
2019-05-17T15:46:29.381Z,94178.86
2019-05-17T15:49:01.487Z,94175.45
2019-05-17T15:51:32.004Z,94178.73
2019-05-17T15:54:02.015Z,94175.33
2019-05-17T15:56:32.012Z,94170.08
2019-05-17T15:59:03.455Z,94165.98
2019-05-17T16:01:33.582Z,94167.85
2019-05-17T16:04:03.536Z,94166.73
2019-05-17T16:06:33.741Z,94159.41
2019-05-17T16:09:06.350Z,94165.89
2019-05-17T16:11:36.845Z,94162.87
2019-05-17T16:14:07.537Z,94161.45
2019-05-17T16:16:38.837Z,94157.80
2019-05-17T16:19:09.001Z,94156.96
2019-05-17T16:21:40.080Z,94155.75
2019-05-17T16:24:11.592Z,94158.31
2019-05-17T16:26:42.091Z,94156.99
2019-05-17T16:29:16.509Z,94155.45
2019-05-17T16:31:46.893Z,94146.05
2019-05-17T16:34:16.926Z,94146.67
2019-05-17T16:36:46.940Z,94147.26
2019-05-17T16:39:16.853Z,94145.23
2019-05-17T16:41:46.961Z,94147.14
2019-05-17T16:44:16.977Z,94143.27
2019-05-17T16:46:46.993Z,94142.97
2019-05-17T16:49:16.968Z,94145.75
2019-05-17T16:51:47.039Z,94147.44
2019-05-17T16:54:17.010Z,94144.89
2019-05-17T16:56:47.117Z,94148.24
2019-05-17T16:59:17.255Z,94151.23
2019-05-17T17:01:47.394Z,94145.36
2019-05-17T17:04:17.461Z,94144.27
2019-05-17T17:06:47.432Z,94139.81
2019-05-17T17:09:17.508Z,94148.81
2019-05-17T17:11:47.515Z,94145.98
2019-05-17T17:14:18.170Z,94146.66
2019-05-17T17:16:48.362Z,94143.55
2019-05-17T17:19:18.402Z,94133.10
2019-05-17T17:21:48.401Z,94131.84
2019-05-17T17:24:18.510Z,94139.09
2019-05-17T17:26:48.518Z,94144.51
2019-05-17T17:29:18.553Z,94147.69
2019-05-17T17:31:48.636Z,94147.05
2019-05-17T17:34:18.598Z,94151.34
2019-05-17T17:36:48.667Z,94148.81
2019-05-17T17:39:18.569Z,94152.86
2019-05-17T17:41:48.692Z,94149.57
2019-05-17T17:44:18.700Z,94150.25
2019-05-17T17:46:48.625Z,94157.25
2019-05-17T17:49:18.674Z,94149.31
2019-05-17T17:51:48.685Z,94148.89
2019-05-17T17:54:18.675Z,94150.52
2019-05-17T17:56:48.641Z,94143.94
2019-05-17T17:59:19.413Z,94148.00
2019-05-17T18:01:49.359Z,94148.23
2019-05-17T18:04:19.969Z,94141.75
2019-05-17T18:06:49.932Z,94144.62
2019-05-17T18:09:19.962Z,94141.30
2019-05-17T18:11:49.937Z,94146.09
2019-05-17T18:14:19.934Z,94143.00
2019-05-17T18:16:49.903Z,94145.49
2019-05-17T18:19:19.918Z,94146.44
2019-05-17T18:21:49.891Z,94144.38
2019-05-17T18:24:19.908Z,94149.72
2019-05-17T18:26:49.898Z,94152.28
2019-05-17T18:29:19.800Z,94152.64
2019-05-17T18:31:49.807Z,94156.17
2019-05-17T18:34:19.737Z,94158.86
2019-05-17T18:36:49.710Z,94162.13
2019-05-17T18:39:19.715Z,94162.98
2019-05-17T18:41:49.757Z,94163.72
2019-05-17T18:44:27.181Z,94163.25
2019-05-17T18:46:51.454Z,94170.00
2019-05-17T18:49:21.389Z,94165.06
2019-05-17T18:51:51.368Z,94165.41
2019-05-17T18:54:21.669Z,94169.80
2019-05-17T18:56:51.673Z,94178.79
2019-05-17T18:59:21.699Z,94170.11
2019-05-17T19:01:51.707Z,94168.73
2019-05-17T19:04:21.603Z,94173.67
2019-05-17T19:06:51.677Z,94176.25
2019-05-17T19:09:21.678Z,94177.95
2019-05-17T19:11:51.686Z,94178.58
2019-05-17T19:14:21.519Z,94178.72
2019-05-17T19:16:51.522Z,94181.81
2019-05-17T19:19:21.494Z,94184.81
2019-05-17T19:21:51.525Z,94188.80
2019-05-17T19:24:21.494Z,94188.33
2019-05-17T19:26:51.509Z,94190.95
2019-05-17T19:29:21.538Z,94191.48
2019-05-17T19:31:51.513Z,94198.70
2019-05-17T19:34:21.531Z,94191.19
2019-05-17T19:36:51.539Z,94190.14
2019-05-17T19:39:21.628Z,94192.80
2019-05-17T19:41:51.629Z,94190.14
2019-05-17T19:44:21.706Z,94193.08
2019-05-17T19:46:51.812Z,94187.53
2019-05-17T19:49:21.865Z,94185.89
2019-05-17T19:51:51.866Z,94190.88
2019-05-17T19:54:21.842Z,94188.92
2019-05-17T19:56:51.926Z,94190.67
2019-05-17T19:59:21.972Z,94192.78
2019-05-17T20:01:52.045Z,94192.49
2019-05-17T20:04:22.087Z,94193.70
2019-05-17T20:06:52.198Z,94198.34
2019-05-17T20:09:22.176Z,94202.20
2019-05-17T20:11:52.190Z,94193.17
2019-05-17T20:14:22.169Z,94196.09
2019-05-17T20:16:52.219Z,94200.73
2019-05-17T20:19:22.215Z,94199.20
2019-05-17T20:21:52.302Z,94196.86
2019-05-17T20:24:22.279Z,94198.25
2019-05-17T20:26:52.293Z,94202.62
2019-05-17T20:29:22.354Z,94196.43
2019-05-17T20:31:52.386Z,94199.13
2019-05-17T20:34:22.501Z,94202.05
2019-05-17T20:36:52.609Z,94202.83
2019-05-17T20:39:22.654Z,94201.97
2019-05-17T20:41:52.659Z,94201.63
2019-05-17T20:44:22.599Z,94202.73
2019-05-17T20:46:52.610Z,94199.27
2019-05-17T20:49:22.702Z,94196.81
2019-05-17T20:51:52.602Z,94195.89
2019-05-17T20:54:22.549Z,94197.30
2019-05-17T20:56:52.593Z,94202.13
2019-05-17T20:59:22.566Z,94203.20
2019-05-17T21:01:52.607Z,94194.59
2019-05-17T21:04:22.537Z,94194.14
2019-05-17T21:06:52.561Z,94195.61
2019-05-17T21:09:22.618Z,94196.23
2019-05-17T21:11:52.628Z,94197.25
2019-05-17T21:14:22.606Z,94190.91
2019-05-17T21:16:52.605Z,94199.06
2019-05-17T21:19:22.577Z,94197.77
2019-05-17T21:21:53.854Z,94199.20
2019-05-17T21:24:23.831Z,94198.42
2019-05-17T21:26:53.769Z,94193.30
2019-05-17T21:29:23.813Z,94194.09
2019-05-17T21:31:53.818Z,94202.73
2019-05-17T21:34:23.794Z,94202.09
2019-05-17T21:36:53.808Z,94197.83
2019-05-17T21:39:23.777Z,94203.41
2019-05-17T21:41:53.794Z,94200.97
2019-05-17T21:44:23.776Z,94207.65
2019-05-17T21:47:04.451Z,94209.58
2019-05-17T21:49:25.439Z,94212.98
2019-05-17T21:51:55.447Z,94216.77
2019-05-17T21:54:25.415Z,94216.64
2019-05-17T21:56:55.417Z,94213.06
2019-05-17T21:59:25.390Z,94215.19
2019-05-17T22:01:55.781Z,94215.33
2019-05-17T22:04:27.057Z,94215.91
2019-05-17T22:06:57.385Z,94215.17
2019-05-17T22:09:27.416Z,94211.47
2019-05-17T22:12:02.776Z,94217.58
2019-05-17T22:14:34.041Z,94216.78
2019-05-17T22:17:04.073Z,94216.64
2019-05-17T22:19:33.957Z,94226.84
2019-05-17T22:22:03.973Z,94228.67
2019-05-17T22:24:33.945Z,94234.41
2019-05-17T22:27:04.025Z,94229.72
2019-05-17T22:29:33.997Z,94230.89
2019-05-17T22:32:04.025Z,94229.44
2019-05-17T22:34:33.989Z,94225.25
2019-05-17T22:37:04.065Z,94228.61
2019-05-17T22:39:33.967Z,94231.30
2019-05-17T22:42:04.046Z,94232.02
2019-05-17T22:44:34.021Z,94234.45
2019-05-17T22:47:04.205Z,94224.67
2019-05-17T22:49:34.175Z,94229.96
2019-05-17T22:52:04.189Z,94237.32
2019-05-17T22:54:34.161Z,94227.39
2019-05-17T22:57:04.207Z,94234.08
2019-05-17T22:59:34.106Z,94235.09
2019-05-17T23:02:04.134Z,94225.12
2019-05-17T23:04:34.091Z,94233.64
2019-05-17T23:07:04.102Z,94226.77
2019-05-17T23:09:34.073Z,94227.78
2019-05-17T23:12:04.083Z,94231.52
2019-05-17T23:14:34.053Z,94229.28
2019-05-17T23:17:04.058Z,94232.50
2019-05-17T23:19:34.031Z,94228.44
2019-05-17T23:22:03.976Z,94228.63
2019-05-17T23:24:33.949Z,94229.34
2019-05-17T23:27:03.993Z,94221.21
2019-05-17T23:29:33.998Z,94223.49
2019-05-17T23:32:04.052Z,94221.85
2019-05-17T23:34:33.985Z,94223.02
2019-05-17T23:37:03.957Z,94226.16
2019-05-17T23:39:33.965Z,94219.32
2019-05-17T23:42:04.005Z,94218.39
2019-05-17T23:44:33.862Z,94220.07
2019-05-17T23:47:07.198Z,94224.63
2019-05-17T23:49:35.466Z,94222.65
2019-05-17T23:52:05.468Z,94224.95
2019-05-17T23:54:35.482Z,94225.63
2019-05-17T23:57:05.513Z,94222.34
2019-05-17T23:59:35.551Z,94219.92
